sensor_id;sensor_type;location;lat;lon;timestamp;pressure;altitude;pressure_sealevel;temperature;humidity
48352;BME280;34163;49.314;6.752;2022-12-10T00:03:36;98528.09;;;8.16;100.00
48352;BME280;34163;49.314;6.752;2022-12-10T00:06:05;98527.25;;;8.16;100.00
48352;BME280;34163;49.314;6.752;2022-12-10T00:08:31;98530.75;;;8.16;100.00
48352;BME280;34163;49.314;6.752;2022-12-10T00:10:58;98529.06;;;8.15;100.00
48352;BME280;34163;49.314;6.752;2022-12-10T00:13:24;98517.56;;;8.16;100.00
48352;BME280;34163;49.314;6.752;2022-12-10T00:15:49;98524.53;;;8.17;100.00
48352;BME280;34163;49.314;6.752;2022-12-10T00:18:14;98519.34;;;8.16;100.00
48352;BME280;34163;49.314;6.752;2022-12-10T00:20:40;98522.00;;;8.16;100.00
48352;BME280;34163;49.314;6.752;2022-12-10T00:23:07;98526.25;;;8.18;100.00
48352;BME280;34163;49.314;6.752;2022-12-10T00:25:32;98523.69;;;8.17;100.00
48352;BME280;34163;49.314;6.752;2022-12-10T00:28:00;98522.75;;;8.18;100.00
48352;BME280;34163;49.314;6.752;2022-12-10T00:30:26;98529.81;;;8.17;100.00
48352;BME280;34163;49.314;6.752;2022-12-10T00:32:51;98528.91;;;8.18;100.00
48352;BME280;34163;49.314;6.752;2022-12-10T00:35:16;98529.50;;;8.24;100.00
48352;BME280;34163;49.314;6.752;2022-12-10T00:37:42;98527.03;;;8.21;100.00
48352;BME280;34163;49.314;6.752;2022-12-10T00:40:07;98527.03;;;8.21;100.00
48352;BME280;34163;49.314;6.752;2022-12-10T00:42:48;98525.31;;;8.19;100.00
48352;BME280;34163;49.314;6.752;2022-12-10T00:45:14;98526.19;;;8.20;100.00
48352;BME280;34163;49.314;6.752;2022-12-10T00:47:39;98531.47;;;8.20;100.00
48352;BME280;34163;49.314;6.752;2022-12-10T00:50:05;98529.75;;;8.19;100.00
48352;BME280;34163;49.314;6.752;2022-12-10T00:52:30;98533.22;;;8.19;100.00
48352;BME280;34163;49.314;6.752;2022-12-10T00:54:55;98537.56;;;8.21;100.00
48352;BME280;34163;49.314;6.752;2022-12-10T00:57:20;98534.94;;;8.21;100.00
48352;BME280;34163;49.314;6.752;2022-12-10T00:59:46;98535.84;;;8.19;100.00
48352;BME280;34163;49.314;6.752;2022-12-10T01:02:11;98541.13;;;8.19;100.00
48352;BME280;34163;49.314;6.752;2022-12-10T01:04:36;98548.13;;;8.21;100.00
48352;BME280;34163;49.314;6.752;2022-12-10T01:07:02;98553.41;;;8.21;100.00
48352;BME280;34163;49.314;6.752;2022-12-10T01:09:28;98556.06;;;8.21;100.00
48352;BME280;34163;49.314;6.752;2022-12-10T01:11:54;98557.84;;;8.20;100.00
48352;BME280;34163;49.314;6.752;2022-12-10T01:14:22;98558.69;;;8.21;100.00
48352;BME280;34163;49.314;6.752;2022-12-10T01:16:48;98562.25;;;8.19;100.00
48352;BME280;34163;49.314;6.752;2022-12-10T01:19:14;98560.38;;;8.22;100.00
48352;BME280;34163;49.314;6.752;2022-12-10T01:21:39;98562.16;;;8.21;100.00
48352;BME280;34163;49.314;6.752;2022-12-10T01:24:05;98561.31;;;8.21;100.00
48352;BME280;34163;49.314;6.752;2022-12-10T01:26:31;98560.28;;;8.23;100.00
48352;BME280;34163;49.314;6.752;2022-12-10T01:28:59;98559.53;;;8.21;100.00
48352;BME280;34163;49.314;6.752;2022-12-10T01:31:26;98562.09;;;8.23;100.00
48352;BME280;34163;49.314;6.752;2022-12-10T01:33:52;98566.53;;;8.22;100.00
48352;BME280;34163;49.314;6.752;2022-12-10T01:36:18;98557.72;;;8.22;100.00
48352;BME280;34163;49.314;6.752;2022-12-10T01:38:44;98570.84;;;8.23;100.00
48352;BME280;34163;49.314;6.752;2022-12-10T01:41:16;98572.66;;;8.23;100.00
48352;BME280;34163;49.314;6.752;2022-12-10T01:46:14;98570.00;;;8.23;100.00
48352;BME280;34163;49.314;6.752;2022-12-10T01:48:39;98579.63;;;8.24;100.00
48352;BME280;34163;49.314;6.752;2022-12-10T01:51:04;98585.75;;;8.24;100.00
48352;BME280;34163;49.314;6.752;2022-12-10T01:53:29;98581.31;;;8.25;100.00
48352;BME280;34163;49.314;6.752;2022-12-10T01:55:55;98579.63;;;8.24;100.00
48352;BME280;34163;49.314;6.752;2022-12-10T01:58:20;98585.00;;;8.22;100.00
48352;BME280;34163;49.314;6.752;2022-12-10T02:03:38;98582.19;;;8.25;100.00
48352;BME280;34163;49.314;6.752;2022-12-10T02:08:46;98587.56;;;8.24;100.00
48352;BME280;34163;49.314;6.752;2022-12-10T02:11:24;98585.69;;;8.26;100.00
48352;BME280;34163;49.314;6.752;2022-12-10T02:14:01;98588.31;;;8.26;100.00
48352;BME280;34163;49.314;6.752;2022-12-10T02:16:31;98587.47;;;8.25;100.00
48352;BME280;34163;49.314;6.752;2022-12-10T02:21:32;98581.25;;;8.26;100.00
48352;BME280;34163;49.314;6.752;2022-12-10T02:24:03;98579.56;;;8.25;100.00
48352;BME280;34163;49.314;6.752;2022-12-10T02:31:24;98578.53;;;8.28;100.00
48352;BME280;34163;49.314;6.752;2022-12-10T02:33:51;98577.75;;;8.26;100.00
48352;BME280;34163;49.314;6.752;2022-12-10T02:36:20;98567.22;;;8.26;100.00
48352;BME280;34163;49.314;6.752;2022-12-10T02:38:47;98574.19;;;8.27;100.00
48352;BME280;34163;49.314;6.752;2022-12-10T02:41:14;98581.16;;;8.28;100.00
48352;BME280;34163;49.314;6.752;2022-12-10T02:43:42;98572.41;;;8.27;100.00
48352;BME280;34163;49.314;6.752;2022-12-10T02:46:08;98562.78;;;8.26;100.00
48352;BME280;34163;49.314;6.752;2022-12-10T02:48:33;98567.22;;;8.26;100.00
48352;BME280;34163;49.314;6.752;2022-12-10T02:51:03;98568.91;;;8.27;100.00
48352;BME280;34163;49.314;6.752;2022-12-10T03:09:01;98569.00;;;8.25;100.00
48352;BME280;34163;49.314;6.752;2022-12-10T03:11:26;98570.78;;;8.25;100.00
48352;BME280;34163;49.314;6.752;2022-12-10T03:14:00;98561.94;;;8.26;100.00
48352;BME280;34163;49.314;6.752;2022-12-10T03:16:27;98562.78;;;8.26;100.00
48352;BME280;34163;49.314;6.752;2022-12-10T03:18:55;98561.94;;;8.26;100.00
48352;BME280;34163;49.314;6.752;2022-12-10T03:21:22;98565.50;;;8.25;100.00
48352;BME280;34163;49.314;6.752;2022-12-10T03:23:47;98562.78;;;8.26;100.00
48352;BME280;34163;49.314;6.752;2022-12-10T03:26:14;98561.94;;;8.26;100.00
48352;BME280;34163;49.314;6.752;2022-12-10T03:28:45;98563.72;;;8.25;100.00
48352;BME280;34163;49.314;6.752;2022-12-10T03:31:11;98558.38;;;8.27;100.00
48352;BME280;34163;49.314;6.752;2022-12-10T03:33:37;98562.78;;;8.26;100.00
48352;BME280;34163;49.314;6.752;2022-12-10T03:36:03;98562.78;;;8.26;100.00
48352;BME280;34163;49.314;6.752;2022-12-10T03:38:29;98561.94;;;8.26;100.00
48352;BME280;34163;49.314;6.752;2022-12-10T03:40:54;98566.22;;;8.28;100.00
48352;BME280;34163;49.314;6.752;2022-12-10T03:43:20;98575.88;;;8.28;100.00
48352;BME280;34163;49.314;6.752;2022-12-10T03:45:48;98570.59;;;8.28;100.00
48352;BME280;34163;49.314;6.752;2022-12-10T03:48:14;98579.47;;;8.27;100.00
48352;BME280;34163;49.314;6.752;2022-12-10T03:50:39;98570.59;;;8.28;100.00
48352;BME280;34163;49.314;6.752;2022-12-10T03:53:04;98578.44;;;8.29;100.00
48352;BME280;34163;49.314;6.752;2022-12-10T03:55:29;98574.97;;;8.29;100.00
48352;BME280;34163;49.314;6.752;2022-12-10T03:57:55;98571.56;;;8.27;100.00
48352;BME280;34163;49.314;6.752;2022-12-10T04:00:20;98573.16;;;8.29;100.00
48352;BME280;34163;49.314;6.752;2022-12-10T04:02:45;98584.59;;;8.30;100.00
48352;BME280;34163;49.314;6.752;2022-12-10T04:05:10;98577.59;;;8.29;100.00
48352;BME280;34163;49.314;6.752;2022-12-10T04:07:36;98577.59;;;8.29;100.00
48352;BME280;34163;49.314;6.752;2022-12-10T04:10:01;98578.44;;;8.29;100.00
48352;BME280;34163;49.314;6.752;2022-12-10T04:12:27;98572.31;;;8.29;100.00
48352;BME280;34163;49.314;6.752;2022-12-10T04:14:52;98574.13;;;8.28;100.00
48352;BME280;34163;49.314;6.752;2022-12-10T04:17:36;98577.59;;;8.29;100.00
48352;BME280;34163;49.314;6.752;2022-12-10T04:20:01;98572.31;;;8.29;100.00
48352;BME280;34163;49.314;6.752;2022-12-10T04:22:26;98580.16;;;8.30;100.00
48352;BME280;34163;49.314;6.752;2022-12-10T04:25:11;98581.97;;;8.30;100.00
48352;BME280;34163;49.314;6.752;2022-12-10T04:27:55;98586.28;;;8.31;100.00
48352;BME280;34163;49.314;6.752;2022-12-10T04:30:20;98584.59;;;8.30;100.00
48352;BME280;34163;49.314;6.752;2022-12-10T04:32:45;98592.50;;;8.30;100.00
48352;BME280;34163;49.314;6.752;2022-12-10T04:35:11;98589.88;;;8.30;100.00
48352;BME280;34163;49.314;6.752;2022-12-10T04:37:36;98591.63;;;8.29;100.00
48352;BME280;34163;49.314;6.752;2022-12-10T04:40:02;98598.56;;;8.32;100.00
48352;BME280;34163;49.314;6.752;2022-12-10T04:42:27;98602.19;;;8.29;100.00
48352;BME280;34163;49.314;6.752;2022-12-10T04:44:53;98605.72;;;8.30;100.00
48352;BME280;34163;49.314;6.752;2022-12-10T04:47:18;98605.72;;;8.30;100.00
48352;BME280;34163;49.314;6.752;2022-12-10T04:49:43;98603.91;;;8.30;100.00
48352;BME280;34163;49.314;6.752;2022-12-10T04:52:10;98602.13;;;8.31;100.00
48352;BME280;34163;49.314;6.752;2022-12-10T04:54:36;98609.19;;;8.30;100.00
48352;BME280;34163;49.314;6.752;2022-12-10T04:57:01;98605.72;;;8.30;100.00
48352;BME280;34163;49.314;6.752;2022-12-10T04:59:26;98601.19;;;8.32;100.00
48352;BME280;34163;49.314;6.752;2022-12-10T05:01:51;98600.44;;;8.30;100.00
48352;BME280;34163;49.314;6.752;2022-12-10T05:04:17;98604.69;;;8.32;100.00
48352;BME280;34163;49.314;6.752;2022-12-10T05:06:43;98603.91;;;8.30;100.00
48352;BME280;34163;49.314;6.752;2022-12-10T05:09:10;98607.41;;;8.31;100.00
48352;BME280;34163;49.314;6.752;2022-12-10T05:11:35;98609.28;;;8.29;100.00
48352;BME280;34163;49.314;6.752;2022-12-10T05:14:00;98607.47;;;8.29;100.00
48352;BME280;34163;49.314;6.752;2022-12-10T05:16:27;98605.72;;;8.30;100.00
48352;BME280;34163;49.314;6.752;2022-12-10T05:18:53;98616.34;;;8.28;100.00
48352;BME280;34163;49.314;6.752;2022-12-10T08:51:05;98806.03;;;8.17;100.00
48352;BME280;34163;49.314;6.752;2022-12-10T08:53:32;98808.69;;;8.17;100.00
48352;BME280;34163;49.314;6.752;2022-12-10T08:55:59;98807.81;;;8.16;100.00
48352;BME280;34163;49.314;6.752;2022-12-10T08:58:25;98813.16;;;8.15;100.00
48352;BME280;34163;49.314;6.752;2022-12-10T09:00:53;98808.75;;;8.15;100.00
48352;BME280;34163;49.314;6.752;2022-12-10T09:03:20;98820.22;;;8.14;100.00
48352;BME280;34163;49.314;6.752;2022-12-10T09:05:46;98827.22;;;8.15;100.00
48352;BME280;34163;49.314;6.752;2022-12-10T09:08:13;98825.50;;;8.14;100.00
48352;BME280;34163;49.314;6.752;2022-12-10T09:10:39;98836.97;;;8.13;100.00
48352;BME280;34163;49.314;6.752;2022-12-10T09:13:04;98839.63;;;8.13;100.00
48352;BME280;34163;49.314;6.752;2022-12-10T09:15:30;98837.84;;;8.14;100.00
48352;BME280;34163;49.314;6.752;2022-12-10T09:17:55;98845.69;;;8.15;100.00
48352;BME280;34163;49.314;6.752;2022-12-10T09:20:20;98829.94;;;8.14;100.00
48352;BME280;34163;49.314;6.752;2022-12-10T09:22:46;98836.97;;;8.13;100.00
48352;BME280;34163;49.314;6.752;2022-12-10T09:25:11;98846.63;;;8.14;100.00
48352;BME280;34163;49.314;6.752;2022-12-10T09:27:40;98846.53;;;8.16;100.00
48352;BME280;34163;49.314;6.752;2022-12-10T09:30:05;98854.47;;;8.16;100.00
48352;BME280;34163;49.314;6.752;2022-12-10T09:32:33;98855.31;;;8.16;100.00
48352;BME280;34163;49.314;6.752;2022-12-10T09:35:01;98852.66;;;8.16;100.00
48352;BME280;34163;49.314;6.752;2022-12-10T09:37:27;98850.03;;;8.16;100.00
48352;BME280;34163;49.314;6.752;2022-12-10T09:40:02;98854.38;;;8.17;100.00
48352;BME280;34163;49.314;6.752;2022-12-10T09:45:09;98851.69;;;8.19;100.00
48352;BME280;34163;49.314;6.752;2022-12-10T09:47:40;98850.91;;;8.17;100.00
48352;BME280;34163;49.314;6.752;2022-12-10T09:50:16;98848.25;;;8.17;100.00
48352;BME280;34163;49.314;6.752;2022-12-10T09:52:45;98850.91;;;8.17;100.00
48352;BME280;34163;49.314;6.752;2022-12-10T09:55:24;98856.19;;;8.17;100.00
48352;BME280;34163;49.314;6.752;2022-12-10T09:57:51;98854.38;;;8.17;100.00
48352;BME280;34163;49.314;6.752;2022-12-10T10:00:38;98854.31;;;8.19;100.00
48352;BME280;34163;49.314;6.752;2022-12-10T10:03:06;98846.47;;;8.17;100.00
48352;BME280;34163;49.314;6.752;2022-12-10T10:05:48;98847.25;;;8.19;100.00
48352;BME280;34163;49.314;6.752;2022-12-10T10:08:19;98851.69;;;8.19;100.00
48352;BME280;34163;49.314;6.752;2022-12-10T10:10:50;98847.25;;;8.19;100.00
48352;BME280;34163;49.314;6.752;2022-12-10T10:14:04;98845.56;;;8.18;100.00
48352;BME280;34163;49.314;6.752;2022-12-10T10:16:14;98837.63;;;8.18;100.00
48352;BME280;34163;49.314;6.752;2022-12-10T10:18:43;98836.69;;;8.19;100.00
48352;BME280;34163;49.314;6.752;2022-12-10T10:21:26;98838.41;;;8.21;100.00
48352;BME280;34163;49.314;6.752;2022-12-10T10:23:52;98836.69;;;8.19;100.00
48352;BME280;34163;49.314;6.752;2022-12-10T10:26:22;98843.69;;;8.21;100.00
48352;BME280;34163;49.314;6.752;2022-12-10T10:28:48;98841.03;;;8.21;100.00
48352;BME280;34163;49.314;6.752;2022-12-10T10:31:30;98844.53;;;8.21;100.00
48352;BME280;34163;49.314;6.752;2022-12-10T10:33:58;98846.31;;;8.21;100.00
48352;BME280;34163;49.314;6.752;2022-12-10T10:36:27;98844.53;;;8.21;100.00
48352;BME280;34163;49.314;6.752;2022-12-10T10:39:08;98848.97;;;8.21;100.00
48352;BME280;34163;49.314;6.752;2022-12-10T10:41:36;98840.09;;;8.22;100.00
48352;BME280;34163;49.314;6.752;2022-12-10T10:44:06;98842.72;;;8.22;100.00
48352;BME280;34163;49.314;6.752;2022-12-10T10:46:38;98835.75;;;8.21;100.00
48352;BME280;34163;49.314;6.752;2022-12-10T10:51:51;98838.41;;;8.21;100.00
48352;BME280;34163;49.314;6.752;2022-12-10T10:54:59;98835.75;;;8.21;100.00
48352;BME280;34163;49.314;6.752;2022-12-10T10:57:12;98832.44;;;8.17;100.00
48352;BME280;34163;49.314;6.752;2022-12-10T10:59:41;98841.03;;;8.21;100.00
48352;BME280;34163;49.314;6.752;2022-12-10T11:02:17;98837.47;;;8.22;100.00
48352;BME280;34163;49.314;6.752;2022-12-10T11:04:46;98834.81;;;8.22;100.00
48352;BME280;34163;49.314;6.752;2022-12-10T11:10:01;98833.91;;;8.23;100.00
48352;BME280;34163;49.314;6.752;2022-12-10T11:12:31;98830.34;;;8.24;100.00
48352;BME280;34163;49.314;6.752;2022-12-10T11:14:58;98839.19;;;8.23;100.00
48352;BME280;34163;49.314;6.752;2022-12-10T11:17:24;98834.81;;;8.22;100.00
48352;BME280;34163;49.314;6.752;2022-12-10T11:19:54;98837.47;;;8.22;100.00
48352;BME280;34163;49.314;6.752;2022-12-10T11:22:21;98841.81;;;8.23;100.00
48352;BME280;34163;49.314;6.752;2022-12-10T11:24:48;98840.97;;;8.22;100.00
48352;BME280;34163;49.314;6.752;2022-12-10T11:27:17;98842.66;;;8.23;100.00
48352;BME280;34163;49.314;6.752;2022-12-10T11:32:21;98849.72;;;8.23;100.00
48352;BME280;34163;49.314;6.752;2022-12-10T11:45:16;98840.91;;;8.24;100.00
48352;BME280;34163;49.314;6.752;2022-12-10T11:47:59;98838.25;;;8.24;100.00
48352;BME280;34163;49.314;6.752;2022-12-10T11:53:21;98844.31;;;8.26;100.00
48352;BME280;34163;49.314;6.752;2022-12-10T12:01:07;98849.50;;;8.27;100.00
48352;BME280;34163;49.314;6.752;2022-12-10T12:03:46;98856.59;;;8.27;100.00
48352;BME280;34163;49.314;6.752;2022-12-10T12:09:02;98859.22;;;8.27;100.00
48352;BME280;34163;49.314;6.752;2022-12-10T12:11:32;98857.50;;;8.26;100.00
48352;BME280;34163;49.314;6.752;2022-12-10T12:14:10;98848.75;;;8.25;100.00
48352;BME280;34163;49.314;6.752;2022-12-10T12:16:48;98843.47;;;8.25;100.00
48352;BME280;34163;49.314;6.752;2022-12-10T12:19:16;98840.81;;;8.25;100.00
48352;BME280;34163;49.314;6.752;2022-12-10T12:21:42;98849.59;;;8.26;100.00
48352;BME280;34163;49.314;6.752;2022-12-10T12:26:46;98843.31;;;8.28;100.00
48352;BME280;34163;49.314;6.752;2022-12-10T12:29:25;98845.09;;;8.28;100.00
48352;BME280;34163;49.314;6.752;2022-12-10T12:34:44;98845.09;;;8.28;100.00
48352;BME280;34163;49.314;6.752;2022-12-10T12:37:14;98841.53;;;8.29;100.00
48352;BME280;34163;49.314;6.752;2022-12-10T12:39:52;98847.66;;;8.29;100.00
48352;BME280;34163;49.314;6.752;2022-12-10T12:42:24;98845.97;;;8.28;100.00
48352;BME280;34163;49.314;6.752;2022-12-10T12:50:11;98851.22;;;8.28;100.00
48352;BME280;34163;49.314;6.752;2022-12-10T12:52:55;98859.16;;;8.28;100.00
48352;BME280;34163;49.314;6.752;2022-12-10T12:55:29;98867.16;;;8.27;100.00
48352;BME280;34163;49.314;6.752;2022-12-10T12:58:04;98864.50;;;8.27;100.00
48352;BME280;34163;49.314;6.752;2022-12-10T13:00:35;98866.28;;;8.26;100.00
48352;BME280;34163;49.314;6.752;2022-12-10T13:05:31;98875.00;;;8.28;100.00
48352;BME280;34163;49.314;6.752;2022-12-10T13:10:45;98880.19;;;8.30;100.00
48352;BME280;34163;49.314;6.752;2022-12-10T13:15:54;98877.63;;;8.28;100.00
48352;BME280;34163;49.314;6.752;2022-12-10T13:18:34;98878.47;;;8.29;100.00
48352;BME280;34163;49.314;6.752;2022-12-10T13:23:51;98875.91;;;8.27;100.00
48352;BME280;34163;49.314;6.752;2022-12-10T13:26:35;98875.06;;;8.27;100.00
48352;BME280;34163;49.314;6.752;2022-12-10T13:29:23;98875.91;;;8.27;100.00
48352;BME280;34163;49.314;6.752;2022-12-10T13:31:57;98879.38;;;8.28;100.00
48352;BME280;34163;49.314;6.752;2022-12-10T13:34:30;98887.38;;;8.26;100.00
48352;BME280;34163;49.314;6.752;2022-12-10T13:47:46;98900.50;;;8.28;100.00
48352;BME280;34163;49.314;6.752;2022-12-10T13:50:16;98899.66;;;8.27;100.00
48352;BME280;34163;49.314;6.752;2022-12-10T14:07:46;98917.28;;;8.27;100.00
48352;BME280;34163;49.314;6.752;2022-12-10T14:10:15;98921.69;;;8.26;100.00
48352;BME280;34163;49.314;6.752;2022-12-10T14:12:41;98925.22;;;8.27;100.00
48352;BME280;34163;49.314;6.752;2022-12-10T14:15:09;98926.13;;;8.26;100.00
48352;BME280;34163;49.314;6.752;2022-12-10T14:17:41;98926.97;;;8.26;100.00
48352;BME280;34163;49.314;6.752;2022-12-10T14:20:07;98924.34;;;8.26;100.00
48352;BME280;34163;49.314;6.752;2022-12-10T14:22:43;98926.06;;;8.27;100.00
48352;BME280;34163;49.314;6.752;2022-12-10T14:25:15;98928.69;;;8.27;100.00
48352;BME280;34163;49.314;6.752;2022-12-10T14:27:40;98928.75;;;8.26;100.00
48352;BME280;34163;49.314;6.752;2022-12-10T14:30:19;98933.13;;;8.27;100.00
48352;BME280;34163;49.314;6.752;2022-12-10T14:32:45;98929.53;;;8.28;100.00
48352;BME280;34163;49.314;6.752;2022-12-10T14:35:18;98932.25;;;8.26;100.00
48352;BME280;34163;49.314;6.752;2022-12-10T14:37:44;98939.31;;;8.26;100.00
48352;BME280;34163;49.314;6.752;2022-12-10T14:40:30;98939.31;;;8.26;100.00
48352;BME280;34163;49.314;6.752;2022-12-10T14:43:02;98936.69;;;8.26;100.00
48352;BME280;34163;49.314;6.752;2022-12-10T14:45:30;98944.59;;;8.26;100.00
48352;BME280;34163;49.314;6.752;2022-12-10T14:47:59;98946.31;;;8.27;100.00
48352;BME280;34163;49.314;6.752;2022-12-10T14:50:25;98942.81;;;8.26;100.00
48352;BME280;34163;49.314;6.752;2022-12-10T14:52:53;98945.44;;;8.26;100.00
48352;BME280;34163;49.314;6.752;2022-12-10T14:55:21;98945.38;;;8.28;100.00
48352;BME280;34163;49.314;6.752;2022-12-10T14:57:51;98945.38;;;8.28;100.00
48352;BME280;34163;49.314;6.752;2022-12-10T15:00:22;98946.25;;;8.28;100.00
48352;BME280;34163;49.314;6.752;2022-12-10T15:02:49;98947.09;;;8.29;100.00
48352;BME280;34163;49.314;6.752;2022-12-10T15:05:18;98956.81;;;8.28;100.00
48352;BME280;34163;49.314;6.752;2022-12-10T15:07:48;98955.94;;;8.28;100.00
48352;BME280;34163;49.314;6.752;2022-12-10T15:10:20;98957.66;;;8.29;100.00
48352;BME280;34163;49.314;6.752;2022-12-10T15:12:48;98962.09;;;8.28;100.00
48352;BME280;34163;49.314;6.752;2022-12-10T15:15:37;98963.78;;;8.29;100.00
48352;BME280;34163;49.314;6.752;2022-12-10T15:20:52;98969.06;;;8.29;100.00
48352;BME280;34163;49.314;6.752;2022-12-10T15:23:18;98969.06;;;8.29;100.00
48352;BME280;34163;49.314;6.752;2022-12-10T15:25:45;98968.22;;;8.29;100.00
48352;BME280;34163;49.314;6.752;2022-12-10T15:28:21;98969.06;;;8.29;100.00
48352;BME280;34163;49.314;6.752;2022-12-10T15:30:47;98966.41;;;8.29;100.00
48352;BME280;34163;49.314;6.752;2022-12-10T15:33:22;98964.72;;;8.28;100.00
48352;BME280;34163;49.314;6.752;2022-12-10T15:35:53;98969.94;;;8.30;100.00
48352;BME280;34163;49.314;6.752;2022-12-10T15:38:18;98976.97;;;8.29;100.00
48352;BME280;34163;49.314;6.752;2022-12-10T15:40:44;98970.78;;;8.30;100.00
48352;BME280;34163;49.314;6.752;2022-12-10T15:43:25;98979.63;;;8.29;100.00
48352;BME280;34163;49.314;6.752;2022-12-10T15:45:51;98972.66;;;8.28;100.00
48352;BME280;34163;49.314;6.752;2022-12-10T15:48:16;98976.13;;;8.29;100.00
48352;BME280;34163;49.314;6.752;2022-12-10T15:50:42;98984.03;;;8.29;100.00
48352;BME280;34163;49.314;6.752;2022-12-10T15:53:12;98988.41;;;8.30;100.00
48352;BME280;34163;49.314;6.752;2022-12-10T15:55:37;98981.34;;;8.30;100.00
48352;BME280;34163;49.314;6.752;2022-12-10T15:58:04;98991.97;;;8.29;100.00
48352;BME280;34163;49.314;6.752;2022-12-10T16:00:30;98984.91;;;8.29;100.00
48352;BME280;34163;49.314;6.752;2022-12-10T16:02:59;98996.34;;;8.30;100.00
48352;BME280;34163;49.314;6.752;2022-12-10T16:05:28;98996.34;;;8.30;100.00
48352;BME280;34163;49.314;6.752;2022-12-10T16:07:54;98999.88;;;8.29;100.00
48352;BME280;34163;49.314;6.752;2022-12-10T16:10:20;99001.69;;;8.28;100.00
48352;BME280;34163;49.314;6.752;2022-12-10T16:12:47;99012.16;;;8.30;100.00
48352;BME280;34163;49.314;6.752;2022-12-10T16:15:17;99006.97;;;8.28;100.00
48352;BME280;34163;49.314;6.752;2022-12-10T16:17:49;99016.56;;;8.29;100.00
48352;BME280;34163;49.314;6.752;2022-12-10T16:22:46;99017.44;;;8.30;100.00
48352;BME280;34163;49.314;6.752;2022-12-10T16:25:12;99010.38;;;8.30;100.00
48352;BME280;34163;49.314;6.752;2022-12-10T16:27:37;99013.84;;;8.31;100.00
48352;BME280;34163;49.314;6.752;2022-12-10T16:30:18;99016.50;;;8.31;100.00
48352;BME280;34163;49.314;6.752;2022-12-10T16:32:44;99025.28;;;8.31;100.00
48352;BME280;34163;49.314;6.752;2022-12-10T16:35:10;99026.13;;;8.32;100.00
48352;BME280;34163;49.314;6.752;2022-12-10T16:37:38;99020.88;;;8.32;100.00
48352;BME280;34163;49.314;6.752;2022-12-10T16:40:04;99032.34;;;8.31;100.00
48352;BME280;34163;49.314;6.752;2022-12-10T16:42:32;99036.69;;;8.32;100.00
48352;BME280;34163;49.314;6.752;2022-12-10T16:47:42;99034.06;;;8.32;100.00
48352;BME280;34163;49.314;6.752;2022-12-10T16:50:09;99020.88;;;8.32;100.00
48352;BME280;34163;49.314;6.752;2022-12-10T16:52:35;99031.41;;;8.32;100.00
48352;BME280;34163;49.314;6.752;2022-12-10T16:55:00;99032.25;;;8.32;100.00
48352;BME280;34163;49.314;6.752;2022-12-10T16:57:26;99034.06;;;8.32;100.00
48352;BME280;34163;49.314;6.752;2022-12-10T16:59:52;99039.28;;;8.33;100.00
48352;BME280;34163;49.314;6.752;2022-12-10T17:02:17;99041.84;;;8.35;100.00
48352;BME280;34163;49.314;6.752;2022-12-10T17:04:43;99042.75;;;8.34;100.00
48352;BME280;34163;49.314;6.752;2022-12-10T17:07:12;99048.03;;;8.34;100.00
48352;BME280;34163;49.314;6.752;2022-12-10T17:09:37;99061.28;;;8.53;100.00
48352;BME280;34163;49.314;6.752;2022-12-10T17:12:11;99056.41;;;8.44;100.00
48352;BME280;34163;49.314;6.752;2022-12-10T17:14:40;99057.41;;;8.41;100.00
48352;BME280;34163;49.314;6.752;2022-12-10T17:17:06;99054.69;;;8.43;100.00
48352;BME280;34163;49.314;6.752;2022-12-10T17:19:35;99052.94;;;8.43;100.00
48352;BME280;34163;49.314;6.752;2022-12-10T17:22:01;99059.00;;;8.45;100.00
48352;BME280;34163;49.314;6.752;2022-12-10T17:24:27;99055.44;;;8.46;100.00
48352;BME280;34163;49.314;6.752;2022-12-10T17:26:52;99056.22;;;8.48;100.00
48352;BME280;34163;49.314;6.752;2022-12-10T17:29:30;99050.00;;;8.49;100.00
48352;BME280;34163;49.314;6.752;2022-12-10T17:31:57;99047.38;;;8.49;100.00
48352;BME280;34163;49.314;6.752;2022-12-10T17:34:22;99049.09;;;8.50;100.00
48352;BME280;34163;49.314;6.752;2022-12-10T17:36:49;99054.38;;;8.50;100.00
48352;BME280;34163;49.314;6.752;2022-12-10T17:39:17;99057.03;;;8.50;100.00
48352;BME280;34163;49.314;6.752;2022-12-10T17:41:43;99051.75;;;8.50;100.00
48352;BME280;34163;49.314;6.752;2022-12-10T17:44:09;99054.53;;;8.47;100.00
48352;BME280;34163;49.314;6.752;2022-12-10T17:46:34;99059.00;;;8.45;100.00
48352;BME280;34163;49.314;6.752;2022-12-10T17:48:59;99056.47;;;8.42;100.00
48352;BME280;34163;49.314;6.752;2022-12-10T17:51:26;99059.22;;;8.39;100.00
48352;BME280;34163;49.314;6.752;2022-12-10T17:53:52;99060.25;;;8.36;100.00
48352;BME280;34163;49.314;6.752;2022-12-10T17:56:19;99066.66;;;8.31;100.00
48352;BME280;34163;49.314;6.752;2022-12-10T17:58:47;99070.38;;;8.27;100.00
48352;BME280;34163;49.314;6.752;2022-12-10T18:01:13;99074.06;;;8.23;100.00
48352;BME280;34163;49.314;6.752;2022-12-10T18:03:39;99081.25;;;8.19;100.00
48352;BME280;34163;49.314;6.752;2022-12-10T18:06:05;99080.75;;;8.11;100.00
48352;BME280;34163;49.314;6.752;2022-12-10T18:08:35;99081.94;;;8.04;100.00
48352;BME280;34163;49.314;6.752;2022-12-10T18:11:00;99082.94;;;8.01;100.00
48352;BME280;34163;49.314;6.752;2022-12-10T18:13:25;99074.41;;;7.94;100.00
48352;BME280;34163;49.314;6.752;2022-12-10T18:15:51;99082.69;;;7.87;100.00
48352;BME280;34163;49.314;6.752;2022-12-10T18:18:19;99076.97;;;7.75;100.00
48352;BME280;34163;49.314;6.752;2022-12-10T18:20:45;99083.56;;;7.65;100.00
48352;BME280;34163;49.314;6.752;2022-12-10T18:23:10;99082.97;;;7.58;100.00
48352;BME280;34163;49.314;6.752;2022-12-10T18:25:36;99085.94;;;7.51;100.00
48352;BME280;34163;49.314;6.752;2022-12-10T18:30:51;99079.47;;;7.37;100.00
48352;BME280;34163;49.314;6.752;2022-12-10T18:33:19;99083.50;;;7.24;100.00
48352;BME280;34163;49.314;6.752;2022-12-10T18:35:45;99085.47;;;7.19;100.00
48352;BME280;34163;49.314;6.752;2022-12-10T18:38:15;99084.00;;;7.12;100.00
48352;BME280;34163;49.314;6.752;2022-12-10T18:40:40;99088.63;;;7.05;100.00